createdAt,value
2023-11-22T00:01:12.318Z,102845.94
2023-11-22T00:03:40.804Z,102841.88
2023-11-22T00:06:08.274Z,102839.19
2023-11-22T00:08:35.596Z,102842.25
2023-11-22T00:11:02.096Z,102842.44
2023-11-22T00:13:30.624Z,102854.41
2023-11-22T00:15:58.072Z,102846.72
2023-11-22T00:18:25.701Z,102863.50
2023-11-22T00:20:52.303Z,102861.84
2023-11-22T00:23:18.756Z,102866.41
2023-11-22T00:25:45.169Z,102870.94
2023-11-22T00:28:12.745Z,102869.91
2023-11-22T00:30:46.471Z,102868.25
2023-11-22T00:33:12.886Z,102875.03
2023-11-22T00:35:39.303Z,102871.31
2023-11-22T00:38:09.863Z,102869.91
2023-11-22T00:40:36.353Z,102869.91
2023-11-22T00:43:04.766Z,102868.25
2023-11-22T00:45:31.203Z,102866.94
2023-11-22T00:47:59.633Z,102859.72
2023-11-22T00:50:27.189Z,102865.94
2023-11-22T00:52:54.512Z,102865.13
2023-11-22T00:55:21.131Z,102865.94
2023-11-22T00:57:49.648Z,102871.69
2023-11-22T01:00:16.631Z,102879.13
2023-11-22T01:02:44.267Z,102887.78
2023-11-22T01:05:14.174Z,102889.81
2023-11-22T01:07:40.701Z,102898.09
2023-11-22T01:10:07.817Z,102903.47
2023-11-22T01:12:34.480Z,102910.53
2023-11-22T01:15:01.190Z,102915.28
2023-11-22T01:17:27.635Z,102920.00
2023-11-22T01:19:54.134Z,102934.50
2023-11-22T01:22:21.752Z,102931.16
2023-11-22T01:24:48.456Z,102937.53
2023-11-22T01:27:14.879Z,102941.78
2023-11-22T01:29:42.675Z,102931.59
2023-11-22T01:32:09.740Z,102938.00
2023-11-22T01:34:36.481Z,102945.41
2023-11-22T01:37:04.448Z,102947.47
2023-11-22T01:39:30.872Z,102948.47
2023-11-22T01:41:57.360Z,102948.84
2023-11-22T01:44:24.964Z,102944.47
2023-11-22T01:46:56.738Z,102956.44
2023-11-22T01:49:24.839Z,102941.50
2023-11-22T01:51:51.300Z,102942.88
2023-11-22T01:54:21.438Z,102937.22
2023-11-22T01:56:49.064Z,102941.75
2023-11-22T01:59:15.733Z,102949.00
2023-11-22T02:01:43.998Z,102937.56
2023-11-22T02:04:10.831Z,102947.50
2023-11-22T02:06:38.017Z,102946.84
2023-11-22T02:09:04.447Z,102947.03
2023-11-22T02:11:30.904Z,102947.03
2023-11-22T02:13:57.384Z,102952.41
2023-11-22T02:16:23.883Z,102955.47
2023-11-22T02:18:50.610Z,102949.41
2023-11-22T02:21:20.230Z,102949.63
2023-11-22T02:23:47.704Z,102960.53
2023-11-22T02:26:14.208Z,102958.03
2023-11-22T02:28:40.618Z,102953.50
2023-11-22T02:31:07.028Z,102953.84
2023-11-22T02:33:33.438Z,102938.91
2023-11-22T02:35:59.913Z,102941.13
2023-11-22T02:38:27.127Z,102937.13
2023-11-22T02:40:54.492Z,102935.63
2023-11-22T02:43:21.553Z,102939.50
2023-11-22T02:45:48.615Z,102938.84
2023-11-22T02:48:15.339Z,102941.53
2023-11-22T02:50:44.777Z,102939.88
2023-11-22T02:53:11.688Z,102937.00
2023-11-22T02:55:38.323Z,102930.78
2023-11-22T02:58:05.081Z,102934.84
2023-11-22T03:00:31.528Z,102919.25
2023-11-22T03:02:58.079Z,102926.47
2023-11-22T03:05:25.498Z,102921.09
2023-11-22T03:07:52.385Z,102931.41
2023-11-22T03:10:19.172Z,102928.03
2023-11-22T03:12:45.874Z,102934.44
2023-11-22T03:15:12.758Z,102946.22
2023-11-22T03:17:42.794Z,102952.78
2023-11-22T03:20:12.835Z,102951.47
2023-11-22T03:22:40.241Z,102963.25
2023-11-22T03:25:07.828Z,102969.13
2023-11-22T03:27:34.220Z,102969.97
2023-11-22T03:30:01.062Z,102973.69
2023-11-22T03:32:27.733Z,102974.84
2023-11-22T03:34:54.221Z,102984.28
2023-11-22T03:37:20.666Z,102995.88
2023-11-22T03:39:49.767Z,102999.59
2023-11-22T03:42:17.735Z,103001.63
2023-11-22T03:44:44.470Z,103006.13
2023-11-22T03:47:16.640Z,103009.00
2023-11-22T03:49:44.052Z,103006.47
2023-11-22T03:52:12.496Z,103017.41
2023-11-22T03:54:40.450Z,103015.56
2023-11-22T03:57:07.171Z,103026.66
2023-11-22T03:59:35.999Z,103031.88
2023-11-22T04:02:02.511Z,103030.00
2023-11-22T04:04:28.954Z,103034.56
2023-11-22T04:06:55.485Z,103049.81
2023-11-22T04:09:23.528Z,103053.19
2023-11-22T04:11:49.980Z,103048.00
2023-11-22T04:14:16.401Z,103054.03
2023-11-22T04:16:43.272Z,103058.41
2023-11-22T04:19:10.134Z,103062.25
2023-11-22T04:21:36.830Z,103057.22
2023-11-22T04:24:03.438Z,103053.03
2023-11-22T04:26:29.878Z,103057.56
2023-11-22T04:28:56.384Z,103057.56
2023-11-22T04:31:22.906Z,103057.41
2023-11-22T04:33:49.388Z,103060.09
2023-11-22T04:36:15.874Z,103067.97
2023-11-22T04:38:42.317Z,103072.53
2023-11-22T04:41:09.034Z,103075.38
2023-11-22T04:43:35.508Z,103072.88
2023-11-22T04:46:01.927Z,103065.97
2023-11-22T04:48:28.435Z,103071.53
2023-11-22T04:50:54.886Z,103069.00
2023-11-22T04:53:21.360Z,103060.13
2023-11-22T04:55:47.856Z,103064.81
2023-11-22T04:58:14.233Z,103063.16
2023-11-22T05:00:40.693Z,103062.50
2023-11-22T05:03:07.687Z,103045.69
2023-11-22T05:05:34.251Z,103047.88
2023-11-22T05:08:00.704Z,103049.75
2023-11-22T05:10:27.151Z,103047.72
2023-11-22T05:12:53.545Z,103060.50
2023-11-22T05:15:20.196Z,103050.09
2023-11-22T05:17:46.770Z,103057.13
2023-11-22T05:20:13.303Z,103050.94
2023-11-22T05:22:39.813Z,103053.97
2023-11-22T05:25:08.173Z,103059.16
2023-11-22T05:27:34.716Z,103047.59
2023-11-22T05:30:02.096Z,103051.09
2023-11-22T05:32:30.283Z,103044.72
2023-11-22T05:34:56.840Z,103055.47
2023-11-22T05:37:24.973Z,103045.91
2023-11-22T05:39:52.266Z,103050.09
2023-11-22T05:42:19.313Z,103060.84
2023-11-22T05:44:45.865Z,103062.50
2023-11-22T05:47:14.203Z,103067.88
2023-11-22T05:49:40.738Z,103069.22
2023-11-22T05:52:08.113Z,103079.78
2023-11-22T05:54:34.683Z,103074.25
2023-11-22T05:57:01.129Z,103074.25
2023-11-22T05:59:27.607Z,103067.00
2023-11-22T06:01:54.055Z,103073.22
2023-11-22T06:04:20.623Z,103069.69
2023-11-22T06:06:47.490Z,103070.53
2023-11-22T06:09:15.625Z,103082.97
2023-11-22T06:11:42.291Z,103080.94
2023-11-22T06:14:08.810Z,103083.78
2023-11-22T06:16:35.331Z,103077.09
2023-11-22T06:19:01.839Z,103076.25
2023-11-22T06:21:28.397Z,103072.56
2023-11-22T06:23:59.504Z,103076.25
2023-11-22T06:26:26.354Z,103093.03
2023-11-22T06:28:53.766Z,103101.25
2023-11-22T06:31:20.278Z,103104.94
2023-11-22T06:33:47.038Z,103106.81
2023-11-22T06:36:15.507Z,103108.50
2023-11-22T06:38:42.509Z,103104.47
2023-11-22T06:41:09.029Z,103103.59
2023-11-22T06:43:35.685Z,103098.75
2023-11-22T06:46:03.526Z,103085.47
2023-11-22T06:48:30.064Z,103087.50
2023-11-22T06:50:56.680Z,103080.50
2023-11-22T06:53:23.101Z,103069.56
2023-11-22T06:55:50.046Z,103075.75
2023-11-22T06:58:18.961Z,103063.16
2023-11-22T07:00:45.435Z,103066.19
2023-11-22T07:03:15.527Z,103075.28
2023-11-22T07:05:42.099Z,103084.00
2023-11-22T07:08:08.727Z,103071.22
2023-11-22T07:10:35.232Z,103072.25
2023-11-22T07:13:04.517Z,103087.00
2023-11-22T07:15:31.420Z,103095.88
2023-11-22T07:17:57.894Z,103099.44
2023-11-22T07:20:24.837Z,103096.06
2023-11-22T07:22:56.297Z,103099.91
2023-11-22T07:25:25.969Z,103099.28
2023-11-22T07:27:54.494Z,103089.38
2023-11-22T07:30:21.196Z,103089.19
2023-11-22T07:32:47.805Z,103084.66
2023-11-22T07:35:14.299Z,103093.72
2023-11-22T07:37:43.488Z,103094.75
2023-11-22T07:40:11.152Z,103099.09
2023-11-22T07:42:37.577Z,103105.28
2023-11-22T07:45:04.689Z,103101.78
2023-11-22T07:47:31.270Z,103105.47
2023-11-22T07:49:58.107Z,103102.63
2023-11-22T07:52:30.854Z,103105.81
2023-11-22T07:55:00.442Z,103097.75
2023-11-22T07:57:27.027Z,103101.44
2023-11-22T07:59:56.463Z,103114.69
2023-11-22T08:02:22.993Z,103111.00
2023-11-22T08:04:51.642Z,103130.47
2023-11-22T08:07:18.099Z,103134.16
2023-11-22T08:09:44.793Z,103149.13
2023-11-22T08:12:12.249Z,103152.97
2023-11-22T08:14:38.753Z,103156.84
2023-11-22T08:17:07.363Z,103166.59
2023-11-22T08:19:34.400Z,103163.72
2023-11-22T08:22:00.863Z,103168.94
2023-11-22T08:24:27.769Z,103161.88
2023-11-22T08:26:54.218Z,103166.41
2023-11-22T08:29:20.676Z,103174.66
2023-11-22T08:31:47.100Z,103167.25
2023-11-22T08:34:13.667Z,103158.19
2023-11-22T08:36:40.191Z,103161.03
2023-11-22T08:39:06.728Z,103167.25
2023-11-22T08:41:34.743Z,103155.31
2023-11-22T08:44:01.371Z,103157.50
2023-11-22T08:46:28.365Z,103156.84
2023-11-22T08:48:54.871Z,103154.97
2023-11-22T08:51:21.307Z,103149.59
2023-11-22T08:53:47.908Z,103162.53
2023-11-22T08:56:15.124Z,103153.47
2023-11-22T08:58:41.761Z,103156.81
2023-11-22T09:01:08.785Z,103152.28
2023-11-22T09:03:36.018Z,103152.13
2023-11-22T09:06:03.983Z,103156.50
2023-11-22T09:08:31.663Z,103152.44
2023-11-22T09:10:58.507Z,103152.44
2023-11-22T09:13:25.899Z,103159.50
2023-11-22T09:15:52.331Z,103161.34
2023-11-22T09:18:18.888Z,103153.78
2023-11-22T09:20:45.630Z,103155.47
2023-11-22T09:23:12.641Z,103163.34
2023-11-22T09:25:40.127Z,103172.91
2023-11-22T09:28:08.403Z,103171.06
2023-11-22T09:30:40.025Z,103175.44
2023-11-22T09:33:17.561Z,103177.97
2023-11-22T09:35:47.028Z,103169.69
2023-11-22T09:38:14.347Z,103168.53
2023-11-22T09:40:42.429Z,103165.50
2023-11-22T09:43:09.162Z,103173.91
2023-11-22T09:45:36.713Z,103162.81
2023-11-22T09:48:04.256Z,103162.47
2023-11-22T09:50:51.560Z,103158.59
2023-11-22T09:53:31.996Z,103171.69
2023-11-22T09:55:59.476Z,103172.50
2023-11-22T09:58:27.776Z,103170.81
2023-11-22T10:00:55.264Z,103165.97
2023-11-22T10:03:22.279Z,103159.38
2023-11-22T10:05:49.022Z,103163.09
2023-11-22T10:08:15.707Z,103157.72
2023-11-22T10:10:43.706Z,103151.97
2023-11-22T10:13:11.101Z,103156.19
2023-11-22T10:15:37.551Z,103129.78
2023-11-22T10:18:04.181Z,103129.44
2023-11-22T10:20:42.199Z,103148.91
2023-11-22T10:23:13.305Z,103148.25
2023-11-22T10:25:44.800Z,103141.19
2023-11-22T10:28:11.444Z,103140.84
2023-11-22T10:30:37.897Z,103140.69
2023-11-22T10:33:04.579Z,103133.09
2023-11-22T10:35:32.307Z,103134.09
2023-11-22T10:38:03.794Z,103115.59
2023-11-22T10:40:30.305Z,103120.63
2023-11-22T10:42:57.597Z,103121.13
2023-11-22T10:45:24.977Z,103109.16
2023-11-22T10:47:53.171Z,103107.97
2023-11-22T10:50:19.817Z,103098.03
2023-11-22T10:52:50.467Z,103100.56
2023-11-22T10:55:19.374Z,103096.88
2023-11-22T10:57:51.140Z,103096.00
2023-11-22T11:00:23.745Z,103095.66
2023-11-22T11:02:55.199Z,103093.25
2023-11-22T11:05:29.216Z,103101.16
2023-11-22T11:08:04.150Z,103102.66
2023-11-22T11:10:32.365Z,103085.84
2023-11-22T11:12:59.235Z,103085.84
2023-11-22T11:15:26.108Z,103071.03
2023-11-22T11:17:53.193Z,103054.53
2023-11-22T11:20:21.135Z,103047.75
2023-11-22T11:22:48.711Z,103031.91
2023-11-22T11:25:20.241Z,103029.69
2023-11-22T11:27:58.708Z,103023.63
2023-11-22T11:30:49.171Z,103030.25
2023-11-22T11:33:19.072Z,103022.16
2023-11-22T11:35:50.646Z,103013.06
2023-11-22T11:38:22.354Z,103003.31
2023-11-22T11:40:55.601Z,102997.75
2023-11-22T11:43:40.046Z,102999.63
2023-11-22T11:46:09.603Z,103001.28
2023-11-22T11:48:36.450Z,102992.84
2023-11-22T11:51:03.296Z,102998.03
2023-11-22T11:53:32.558Z,103012.16
2023-11-22T11:55:59.795Z,103005.59
2023-11-22T11:58:26.191Z,103000.84
2023-11-22T12:00:53.678Z,103002.16
2023-11-22T12:03:22.854Z,102994.91
2023-11-22T12:05:52.437Z,103001.44
2023-11-22T12:08:19.963Z,102995.03
2023-11-22T12:10:50.374Z,102998.38
2023-11-22T12:13:21.783Z,102990.28
2023-11-22T12:15:48.913Z,102979.81
2023-11-22T12:18:15.438Z,102987.88
2023-11-22T12:20:42.003Z,102988.06
2023-11-22T12:23:09.661Z,102978.75
2023-11-22T12:25:36.532Z,102968.63
2023-11-22T12:28:03.469Z,102978.38
2023-11-22T12:30:34.683Z,102974.69
2023-11-22T12:33:06.430Z,102977.00
2023-11-22T12:35:36.175Z,102976.63
2023-11-22T12:38:03.798Z,102965.69
2023-11-22T12:40:32.258Z,102970.41
2023-11-22T12:42:59.269Z,102967.91
2023-11-22T12:45:29.267Z,102951.75
2023-11-22T12:47:56.996Z,102958.78
2023-11-22T12:50:42.976Z,102950.06
2023-11-22T12:53:14.011Z,102952.75
2023-11-22T12:55:49.776Z,102946.72
2023-11-22T12:58:20.736Z,102944.88
2023-11-22T13:00:48.285Z,102939.28
2023-11-22T13:03:15.192Z,102933.91
2023-11-22T13:05:46.221Z,102929.81
2023-11-22T13:08:14.437Z,102927.13
2023-11-22T13:10:44.144Z,102919.69
2023-11-22T13:13:10.596Z,102913.28
2023-11-22T13:15:37.294Z,102905.84
2023-11-22T13:18:04.044Z,102898.47
2023-11-22T13:20:30.572Z,102891.75
2023-11-22T13:22:57.355Z,102899.81
2023-11-22T13:25:24.747Z,102904.19
2023-11-22T13:27:53.221Z,102904.19
2023-11-22T13:30:23.726Z,102902.50
2023-11-22T13:32:51.265Z,102897.50
2023-11-22T13:35:19.112Z,102884.25
2023-11-22T13:37:47.295Z,102887.38
2023-11-22T13:40:18.152Z,102890.44
2023-11-22T13:42:45.967Z,102885.91
2023-11-22T13:45:18.418Z,102902.88
2023-11-22T13:47:46.322Z,102908.28
2023-11-22T13:50:15.643Z,102896.22
2023-11-22T13:52:42.297Z,102885.44
2023-11-22T13:55:12.110Z,102876.72
2023-11-22T13:57:38.516Z,102892.50
2023-11-22T14:00:11.097Z,102885.81
2023-11-22T14:02:37.941Z,102887.47
2023-11-22T14:05:08.758Z,102885.81
2023-11-22T14:07:36.441Z,102890.75
2023-11-22T14:10:04.375Z,102891.97
2023-11-22T14:12:32.821Z,102879.97
2023-11-22T14:15:00.619Z,102890.28
2023-11-22T14:17:27.360Z,102877.00
2023-11-22T14:19:54.425Z,102863.38
2023-11-22T14:22:22.003Z,102852.59
2023-11-22T14:24:49.887Z,102851.31
2023-11-22T14:27:16.321Z,102845.91
2023-11-22T14:29:43.633Z,102849.25
2023-11-22T14:32:10.061Z,102855.03
2023-11-22T14:34:36.452Z,102851.31
2023-11-22T14:37:03.405Z,102853.34
2023-11-22T14:39:30.646Z,102847.97
2023-11-22T14:41:57.085Z,102836.53
2023-11-22T14:44:23.556Z,102850.66
2023-11-22T14:46:50.350Z,102842.56
2023-11-22T14:49:16.775Z,102843.22
2023-11-22T14:51:43.563Z,102855.03
2023-11-22T14:54:09.988Z,102855.38
2023-11-22T14:56:36.437Z,102853.34
2023-11-22T14:59:03.032Z,102851.69
2023-11-22T15:01:29.931Z,102850.00
2023-11-22T15:03:56.602Z,102846.66
2023-11-22T15:06:24.079Z,102859.94
2023-11-22T15:08:51.898Z,102853.25
2023-11-22T15:11:19.200Z,102856.31
2023-11-22T15:13:45.966Z,102878.41
2023-11-22T15:16:17.189Z,102888.16
2023-11-22T15:18:44.181Z,102882.13
2023-11-22T15:21:10.592Z,102869.69
2023-11-22T15:23:37.239Z,102859.56
2023-11-22T15:26:05.292Z,102864.59
2023-11-22T15:28:33.797Z,102848.81
2023-11-22T15:31:03.530Z,102849.81
2023-11-22T15:33:30.589Z,102848.16
2023-11-22T15:35:57.091Z,102847.50
2023-11-22T15:38:23.597Z,102841.84
2023-11-22T15:40:50.755Z,102830.72
2023-11-22T15:43:17.609Z,102830.06
2023-11-22T15:45:44.170Z,102823.66
2023-11-22T15:48:10.725Z,102825.31
2023-11-22T15:50:37.198Z,102836.25
2023-11-22T15:53:03.775Z,102822.63
2023-11-22T15:55:30.188Z,102832.75
2023-11-22T15:57:59.735Z,102830.72
2023-11-22T16:00:27.006Z,102829.41
2023-11-22T16:02:53.569Z,102822.34
2023-11-22T16:05:20.103Z,102820.47
2023-11-22T16:07:46.548Z,102804.06
2023-11-22T16:10:13.960Z,102786.88
2023-11-22T16:12:40.597Z,102775.97
2023-11-22T16:15:07.402Z,102778.81
2023-11-22T16:17:36.849Z,102780.88
2023-11-22T16:20:12.030Z,102793.78
2023-11-22T16:22:45.979Z,102790.72
2023-11-22T16:25:15.693Z,102788.66
2023-11-22T16:27:42.270Z,102778.66
2023-11-22T16:30:09.843Z,102763.16
2023-11-22T16:32:37.806Z,102763.16
2023-11-22T16:35:05.055Z,102756.09
2023-11-22T16:37:31.450Z,102754.59
2023-11-22T16:39:58.017Z,102751.09
2023-11-22T16:42:24.997Z,102750.16
2023-11-22T16:44:51.767Z,102745.59
2023-11-22T16:47:19.130Z,102755.19
2023-11-22T16:49:47.363Z,102762.03
2023-11-22T16:52:17.566Z,102753.78
2023-11-22T16:54:44.876Z,102730.31
2023-11-22T16:57:13.977Z,102738.38
2023-11-22T16:59:41.167Z,102742.75
2023-11-22T17:02:10.771Z,102752.47
2023-11-22T17:04:37.706Z,102745.22
2023-11-22T17:07:04.159Z,102744.03
2023-11-22T17:09:30.648Z,102740.31
2023-11-22T17:11:58.476Z,102745.50
2023-11-22T17:14:27.687Z,102751.53
2023-11-22T17:16:54.124Z,102743.28
2023-11-22T17:19:21.278Z,102746.63
2023-11-22T17:21:47.824Z,102752.66
2023-11-22T17:24:14.287Z,102758.69
2023-11-22T17:26:40.729Z,102752.06
2023-11-22T17:29:07.309Z,102751.25
2023-11-22T17:31:34.171Z,102740.88
2023-11-22T17:34:00.901Z,102735.47
2023-11-22T17:36:31.541Z,102729.91
2023-11-22T17:38:58.014Z,102743.19
2023-11-22T17:41:24.539Z,102741.31
2023-11-22T17:43:51.010Z,102737.59
2023-11-22T17:46:22.568Z,102740.50
2023-11-22T17:48:55.834Z,102732.22
2023-11-22T17:51:24.742Z,102734.72
2023-11-22T17:53:52.650Z,102732.22
2023-11-22T17:56:19.085Z,102714.59
2023-11-22T17:58:46.142Z,102723.13
2023-11-22T18:01:12.649Z,102720.63
2023-11-22T18:03:40.720Z,102701.13
2023-11-22T18:06:15.662Z,102700.28
2023-11-22T18:08:42.457Z,102693.72
2023-11-22T18:11:14.073Z,102699.75
2023-11-22T18:13:40.957Z,102707.16
2023-11-22T18:16:07.652Z,102697.03
2023-11-22T18:18:34.243Z,102704.09
2023-11-22T18:21:00.779Z,102699.34
2023-11-22T18:23:29.510Z,102700.00
2023-11-22T18:25:56.327Z,102692.94
2023-11-22T18:28:24.751Z,102687.38
2023-11-22T18:30:54.511Z,102682.63
2023-11-22T18:33:28.022Z,102679.75
2023-11-22T18:35:57.265Z,102679.75
2023-11-22T18:38:24.975Z,102663.97
2023-11-22T18:40:53.100Z,102675.19
2023-11-22T18:43:19.591Z,102667.75
2023-11-22T18:45:48.924Z,102652.44
2023-11-22T18:48:16.078Z,102652.84
2023-11-22T18:50:42.673Z,102647.84
2023-11-22T18:53:09.486Z,102650.78
2023-11-22T18:55:35.949Z,102640.03
2023-11-22T18:58:05.536Z,102656.81
2023-11-22T19:00:32.360Z,102642.31
2023-11-22T19:02:58.880Z,102649.38
2023-11-22T19:05:25.484Z,102636.28
2023-11-22T19:07:52.666Z,102630.91
2023-11-22T19:10:19.378Z,102648.72
2023-11-22T19:12:45.836Z,102645.00
2023-11-22T19:15:12.578Z,102646.69
2023-11-22T19:17:39.201Z,102645.28
2023-11-22T19:20:06.584Z,102636.16
2023-11-22T19:22:33.244Z,102626.44
2023-11-22T19:24:59.728Z,102620.19
2023-11-22T19:27:26.312Z,102615.66
2023-11-22T19:29:52.782Z,102623.31
2023-11-22T19:32:21.583Z,102615.88
2023-11-22T19:34:48.112Z,102604.94
2023-11-22T19:37:14.580Z,102599.34
2023-11-22T19:39:42.489Z,102602.88
2023-11-22T19:42:09.434Z,102610.75
2023-11-22T19:44:36.273Z,102618.66
2023-11-22T19:47:05.389Z,102614.72
2023-11-22T19:49:31.811Z,102605.63
2023-11-22T19:51:58.236Z,102585.72
2023-11-22T19:54:24.639Z,102583.69
2023-11-22T19:56:51.195Z,102574.56
2023-11-22T19:59:17.702Z,102584.53
2023-11-22T20:01:44.253Z,102601.16
2023-11-22T20:04:12.553Z,102583.97
2023-11-22T20:06:39.165Z,102581.91
2023-11-22T20:09:05.965Z,102572.16
2023-11-22T20:11:32.572Z,102568.44
2023-11-22T20:13:59.087Z,102571.13
2023-11-22T20:16:25.544Z,102569.06
2023-11-22T20:18:52.071Z,102566.38
2023-11-22T20:21:18.553Z,102574.28
2023-11-22T20:23:45.027Z,102576.75
2023-11-22T20:26:11.475Z,102575.72
2023-11-22T20:28:38.918Z,102581.97
2023-11-22T20:31:05.634Z,102581.13
2023-11-22T20:33:32.145Z,102579.06
2023-11-22T20:35:58.664Z,102584.44
2023-11-22T20:38:25.153Z,102578.25
2023-11-22T20:40:51.655Z,102569.94
2023-11-22T20:43:18.060Z,102562.50
2023-11-22T20:45:44.509Z,102560.03
2023-11-22T20:48:11.034Z,102566.22
2023-11-22T20:50:38.158Z,102569.56
2023-11-22T20:53:04.649Z,102568.75
2023-11-22T20:55:31.088Z,102565.84
2023-11-22T20:57:58.434Z,102567.88
2023-11-22T21:00:24.853Z,102562.91
2023-11-22T21:02:51.400Z,102556.47
2023-11-22T21:05:18.099Z,102550.06
2023-11-22T21:07:44.566Z,102553.38
2023-11-22T21:10:11.270Z,102545.31
2023-11-22T21:12:38.621Z,102539.09
2023-11-22T21:15:06.152Z,102542.63
2023-11-22T21:17:40.971Z,102542.22
2023-11-22T21:20:13.882Z,102537.84
2023-11-22T21:22:40.796Z,102527.72
2023-11-22T21:25:09.525Z,102531.03
2023-11-22T21:27:36.411Z,102535.63
2023-11-22T21:30:03.543Z,102533.75
2023-11-22T21:32:30.181Z,102521.75
2023-11-22T21:34:56.641Z,102518.22
2023-11-22T21:37:24.329Z,102520.72
2023-11-22T21:39:51.250Z,102514.09
2023-11-22T21:42:17.729Z,102512.25
2023-11-22T21:44:45.013Z,102511.84
2023-11-22T21:47:11.651Z,102507.47
2023-11-22T21:49:38.998Z,102500.84
2023-11-22T21:52:06.580Z,102505.00
2023-11-22T21:54:33.148Z,102507.50
2023-11-22T21:57:00.064Z,102498.38
2023-11-22T21:59:26.522Z,102494.66
2023-11-22T22:01:53.533Z,102488.03
2023-11-22T22:04:20.148Z,102494.88
2023-11-22T22:06:46.737Z,102483.88
2023-11-22T22:09:16.192Z,102486.41
2023-11-22T22:11:54.527Z,102476.25
2023-11-22T22:14:21.110Z,102467.13
2023-11-22T22:16:48.004Z,102468.78
2023-11-22T22:19:14.730Z,102474.59
2023-11-22T22:21:46.155Z,102474.41
2023-11-22T22:24:13.516Z,102474.41
2023-11-22T22:26:40.075Z,102470.47
2023-11-22T22:29:06.524Z,102464.88
2023-11-22T22:31:52.205Z,102471.72
2023-11-22T22:34:18.802Z,102466.34
2023-11-22T22:36:48.305Z,102462.41
2023-11-22T22:39:14.801Z,102458.69
2023-11-22T22:41:44.499Z,102461.16
2023-11-22T22:44:11.354Z,102463.03
2023-11-22T22:46:43.278Z,102456.41
2023-11-22T22:49:18.285Z,102453.69
2023-11-22T22:51:59.670Z,102450.81
2023-11-22T22:54:32.393Z,102454.13
2023-11-22T22:56:59.054Z,102455.81
2023-11-22T22:59:26.619Z,102460.16
2023-11-22T23:01:54.905Z,102452.69
2023-11-22T23:04:21.429Z,102450.81
2023-11-22T23:06:50.453Z,102451.44
2023-11-22T23:09:23.125Z,102454.97
2023-11-22T23:11:50.661Z,102449.59
2023-11-22T23:14:23.311Z,102448.34
2023-11-22T23:16:56.750Z,102443.78
2023-11-22T23:19:23.258Z,102436.28
2023-11-22T23:21:50.021Z,102443.34
2023-11-22T23:24:19.350Z,102445.00
2023-11-22T23:26:50.889Z,102441.09
2023-11-22T23:29:24.668Z,102435.47
2023-11-22T23:31:53.339Z,102436.31
2023-11-22T23:34:19.784Z,102441.31
2023-11-22T23:36:47.255Z,102427.59
2023-11-22T23:39:16.055Z,102428.22
2023-11-22T23:41:46.727Z,102432.56
2023-11-22T23:44:13.185Z,102430.50
2023-11-22T23:46:42.492Z,102431.13
2023-11-22T23:49:09.492Z,102426.34
2023-11-22T23:51:43.292Z,102426.97
2023-11-22T23:54:19.133Z,102427.59
2023-11-22T23:56:46.696Z,102413.06
2023-11-22T23:59:17.171Z,102411.84
